sensor_id;sensor_type;location;lat;lon;timestamp;P1;durP1;ratioP1;P2;durP2;ratioP2
58496;SDS011;44284;51.310;16.904;2023-05-10T00:00:28;12.23;;;7.75;;
58496;SDS011;44284;51.310;16.904;2023-05-10T00:02:54;10.90;;;7.95;;
58496;SDS011;44284;51.310;16.904;2023-05-10T00:05:20;11.25;;;7.82;;
58496;SDS011;44284;51.310;16.904;2023-05-10T00:07:46;11.63;;;8.02;;
58496;SDS011;44284;51.310;16.904;2023-05-10T00:10:12;12.52;;;8.23;;
58496;SDS011;44284;51.310;16.904;2023-05-10T00:12:38;10.98;;;7.13;;
58496;SDS011;44284;51.310;16.904;2023-05-10T00:15:04;11.50;;;7.03;;
58496;SDS011;44284;51.310;16.904;2023-05-10T00:17:31;11.23;;;7.63;;
58496;SDS011;44284;51.310;16.904;2023-05-10T00:19:57;10.98;;;8.18;;
58496;SDS011;44284;51.310;16.904;2023-05-10T00:22:23;13.13;;;7.78;;
58496;SDS011;44284;51.310;16.904;2023-05-10T00:24:49;13.48;;;8.23;;
58496;SDS011;44284;51.310;16.904;2023-05-10T00:27:15;11.50;;;8.15;;
58496;SDS011;44284;51.310;16.904;2023-05-10T00:29:41;11.02;;;7.95;;
58496;SDS011;44284;51.310;16.904;2023-05-10T00:32:07;11.05;;;7.60;;
58496;SDS011;44284;51.310;16.904;2023-05-10T00:34:33;13.23;;;7.97;;
58496;SDS011;44284;51.310;16.904;2023-05-10T00:36:59;10.80;;;7.60;;
58496;SDS011;44284;51.310;16.904;2023-05-10T00:39:25;13.80;;;8.02;;
58496;SDS011;44284;51.310;16.904;2023-05-10T00:41:53;12.50;;;8.10;;
58496;SDS011;44284;51.310;16.904;2023-05-10T00:44:19;14.57;;;7.82;;
58496;SDS011;44284;51.310;16.904;2023-05-10T00:46:46;13.43;;;7.65;;
58496;SDS011;44284;51.310;16.904;2023-05-10T00:49:12;11.80;;;8.27;;
58496;SDS011;44284;51.310;16.904;2023-05-10T00:51:38;11.13;;;7.57;;
58496;SDS011;44284;51.310;16.904;2023-05-10T00:54:04;11.15;;;7.90;;
58496;SDS011;44284;51.310;16.904;2023-05-10T00:56:31;13.68;;;8.00;;
58496;SDS011;44284;51.310;16.904;2023-05-10T00:58:57;11.25;;;7.85;;
58496;SDS011;44284;51.310;16.904;2023-05-10T01:01:24;11.65;;;8.35;;
58496;SDS011;44284;51.310;16.904;2023-05-10T01:03:50;10.98;;;8.23;;
58496;SDS011;44284;51.310;16.904;2023-05-10T01:06:17;12.80;;;8.50;;
58496;SDS011;44284;51.310;16.904;2023-05-10T01:08:43;10.88;;;7.85;;
58496;SDS011;44284;51.310;16.904;2023-05-10T01:11:09;12.68;;;8.23;;
58496;SDS011;44284;51.310;16.904;2023-05-10T01:13:38;12.82;;;8.10;;
58496;SDS011;44284;51.310;16.904;2023-05-10T01:16:05;11.30;;;8.25;;
58496;SDS011;44284;51.310;16.904;2023-05-10T01:18:35;10.82;;;7.95;;
58496;SDS011;44284;51.310;16.904;2023-05-10T01:21:12;10.98;;;7.45;;
58496;SDS011;44284;51.310;16.904;2023-05-10T01:34:07;15.20;;;8.57;;
58496;SDS011;44284;51.310;16.904;2023-05-10T01:36:35;13.88;;;8.85;;
58496;SDS011;44284;51.310;16.904;2023-05-10T01:39:11;13.32;;;8.68;;
58496;SDS011;44284;51.310;16.904;2023-05-10T01:41:51;12.73;;;8.15;;
58496;SDS011;44284;51.310;16.904;2023-05-10T01:46:57;13.70;;;8.35;;
58496;SDS011;44284;51.310;16.904;2023-05-10T01:49:25;13.57;;;8.15;;
58496;SDS011;44284;51.310;16.904;2023-05-10T01:51:53;11.95;;;8.20;;
58496;SDS011;44284;51.310;16.904;2023-05-10T01:54:20;10.30;;;7.05;;
58496;SDS011;44284;51.310;16.904;2023-05-10T01:56:47;14.50;;;7.68;;
58496;SDS011;44284;51.310;16.904;2023-05-10T01:59:17;11.82;;;7.70;;
58496;SDS011;44284;51.310;16.904;2023-05-10T02:01:44;13.35;;;8.27;;
58496;SDS011;44284;51.310;16.904;2023-05-10T02:04:11;14.68;;;8.45;;
58496;SDS011;44284;51.310;16.904;2023-05-10T02:06:40;12.75;;;8.07;;
58496;SDS011;44284;51.310;16.904;2023-05-10T02:09:07;12.35;;;7.53;;
58496;SDS011;44284;51.310;16.904;2023-05-10T02:11:33;13.98;;;7.97;;
58496;SDS011;44284;51.310;16.904;2023-05-10T02:13:59;11.88;;;7.35;;
58496;SDS011;44284;51.310;16.904;2023-05-10T02:16:26;10.90;;;8.10;;
58496;SDS011;44284;51.310;16.904;2023-05-10T02:18:55;13.20;;;8.15;;
58496;SDS011;44284;51.310;16.904;2023-05-10T02:21:23;12.48;;;7.43;;
58496;SDS011;44284;51.310;16.904;2023-05-10T02:23:50;13.02;;;7.78;;
58496;SDS011;44284;51.310;16.904;2023-05-10T02:26:17;10.55;;;7.15;;
58496;SDS011;44284;51.310;16.904;2023-05-10T02:28:43;12.75;;;7.75;;
58496;SDS011;44284;51.310;16.904;2023-05-10T02:31:10;11.75;;;7.93;;
58496;SDS011;44284;51.310;16.904;2023-05-10T02:33:38;11.85;;;7.82;;
58496;SDS011;44284;51.310;16.904;2023-05-10T02:36:04;10.23;;;6.88;;
58496;SDS011;44284;51.310;16.904;2023-05-10T02:38:31;11.63;;;7.72;;
58496;SDS011;44284;51.310;16.904;2023-05-10T02:40:59;10.82;;;7.15;;
58496;SDS011;44284;51.310;16.904;2023-05-10T02:43:25;10.35;;;6.60;;
58496;SDS011;44284;51.310;16.904;2023-05-10T02:45:51;11.48;;;7.13;;
58496;SDS011;44284;51.310;16.904;2023-05-10T02:48:17;11.02;;;7.35;;
58496;SDS011;44284;51.310;16.904;2023-05-10T02:50:44;11.30;;;7.28;;
58496;SDS011;44284;51.310;16.904;2023-05-10T02:53:14;11.52;;;7.30;;
58496;SDS011;44284;51.310;16.904;2023-05-10T02:55:41;12.98;;;8.30;;
58496;SDS011;44284;51.310;16.904;2023-05-10T02:58:12;13.35;;;7.40;;
58496;SDS011;44284;51.310;16.904;2023-05-10T03:00:38;10.60;;;6.90;;
58496;SDS011;44284;51.310;16.904;2023-05-10T03:03:04;11.57;;;7.28;;
58496;SDS011;44284;51.310;16.904;2023-05-10T03:05:31;11.93;;;7.10;;
58496;SDS011;44284;51.310;16.904;2023-05-10T03:07:58;10.55;;;7.00;;
58496;SDS011;44284;51.310;16.904;2023-05-10T03:10:28;13.52;;;8.13;;
58496;SDS011;44284;51.310;16.904;2023-05-10T03:18:29;12.18;;;7.70;;
58496;SDS011;44284;51.310;16.904;2023-05-10T03:21:01;11.75;;;8.07;;
58496;SDS011;44284;51.310;16.904;2023-05-10T03:23:33;11.77;;;7.18;;
58496;SDS011;44284;51.310;16.904;2023-05-10T03:26:00;12.55;;;7.90;;
58496;SDS011;44284;51.310;16.904;2023-05-10T03:28:26;13.63;;;8.00;;
58496;SDS011;44284;51.310;16.904;2023-05-10T03:30:53;11.45;;;7.45;;
58496;SDS011;44284;51.310;16.904;2023-05-10T03:33:19;11.15;;;7.45;;
58496;SDS011;44284;51.310;16.904;2023-05-10T03:35:46;12.38;;;7.88;;
58496;SDS011;44284;51.310;16.904;2023-05-10T03:38:12;12.23;;;7.28;;
58496;SDS011;44284;51.310;16.904;2023-05-10T03:40:38;14.07;;;7.97;;
58496;SDS011;44284;51.310;16.904;2023-05-10T03:43:04;13.10;;;7.90;;
58496;SDS011;44284;51.310;16.904;2023-05-10T03:45:30;15.75;;;8.10;;
58496;SDS011;44284;51.310;16.904;2023-05-10T03:47:59;12.52;;;7.63;;
58496;SDS011;44284;51.310;16.904;2023-05-10T03:50:25;14.20;;;7.70;;
58496;SDS011;44284;51.310;16.904;2023-05-10T03:52:51;14.70;;;7.80;;
58496;SDS011;44284;51.310;16.904;2023-05-10T03:55:17;12.95;;;8.00;;
58496;SDS011;44284;51.310;16.904;2023-05-10T03:57:43;11.63;;;7.68;;
58496;SDS011;44284;51.310;16.904;2023-05-10T04:00:10;13.02;;;7.93;;
58496;SDS011;44284;51.310;16.904;2023-05-10T04:02:36;9.98;;;7.47;;
58496;SDS011;44284;51.310;16.904;2023-05-10T04:05:02;11.60;;;7.65;;
58496;SDS011;44284;51.310;16.904;2023-05-10T04:07:28;11.10;;;7.70;;
58496;SDS011;44284;51.310;16.904;2023-05-10T04:09:54;11.05;;;7.20;;
58496;SDS011;44284;51.310;16.904;2023-05-10T04:12:20;14.02;;;8.27;;
58496;SDS011;44284;51.310;16.904;2023-05-10T04:14:46;11.25;;;7.30;;
58496;SDS011;44284;51.310;16.904;2023-05-10T04:17:13;10.85;;;7.70;;
58496;SDS011;44284;51.310;16.904;2023-05-10T04:19:39;10.60;;;6.78;;
58496;SDS011;44284;51.310;16.904;2023-05-10T04:22:05;11.25;;;7.88;;
58496;SDS011;44284;51.310;16.904;2023-05-10T04:24:31;13.07;;;8.65;;
58496;SDS011;44284;51.310;16.904;2023-05-10T04:26:57;12.90;;;8.13;;
58496;SDS011;44284;51.310;16.904;2023-05-10T04:29:23;12.80;;;8.48;;
58496;SDS011;44284;51.310;16.904;2023-05-10T04:31:49;14.68;;;8.93;;
58496;SDS011;44284;51.310;16.904;2023-05-10T04:34:15;14.82;;;8.10;;
58496;SDS011;44284;51.310;16.904;2023-05-10T04:36:42;11.52;;;7.65;;
58496;SDS011;44284;51.310;16.904;2023-05-10T04:39:08;11.05;;;7.43;;
58496;SDS011;44284;51.310;16.904;2023-05-10T04:41:34;11.98;;;7.78;;
58496;SDS011;44284;51.310;16.904;2023-05-10T04:44:00;10.88;;;7.35;;
58496;SDS011;44284;51.310;16.904;2023-05-10T04:46:26;10.90;;;7.03;;
58496;SDS011;44284;51.310;16.904;2023-05-10T04:48:52;14.93;;;8.35;;
58496;SDS011;44284;51.310;16.904;2023-05-10T04:51:18;11.85;;;7.85;;
58496;SDS011;44284;51.310;16.904;2023-05-10T04:53:45;10.13;;;6.85;;
58496;SDS011;44284;51.310;16.904;2023-05-10T04:56:11;14.30;;;7.90;;
58496;SDS011;44284;51.310;16.904;2023-05-10T04:58:37;12.88;;;7.20;;
58496;SDS011;44284;51.310;16.904;2023-05-10T05:01:06;11.50;;;7.47;;
58496;SDS011;44284;51.310;16.904;2023-05-10T05:03:36;12.32;;;7.63;;
58496;SDS011;44284;51.310;16.904;2023-05-10T05:06:02;11.45;;;7.60;;
58496;SDS011;44284;51.310;16.904;2023-05-10T05:08:28;11.10;;;7.50;;
58496;SDS011;44284;51.310;16.904;2023-05-10T05:10:54;11.13;;;7.30;;
58496;SDS011;44284;51.310;16.904;2023-05-10T05:13:20;11.90;;;7.80;;
58496;SDS011;44284;51.310;16.904;2023-05-10T05:15:46;12.50;;;7.72;;
58496;SDS011;44284;51.310;16.904;2023-05-10T05:18:12;12.75;;;7.65;;
58496;SDS011;44284;51.310;16.904;2023-05-10T05:20:38;10.88;;;8.00;;
58496;SDS011;44284;51.310;16.904;2023-05-10T05:23:04;10.07;;;7.20;;
58496;SDS011;44284;51.310;16.904;2023-05-10T05:25:30;11.48;;;7.57;;
58496;SDS011;44284;51.310;16.904;2023-05-10T05:27:57;12.35;;;7.43;;
58496;SDS011;44284;51.310;16.904;2023-05-10T05:30:23;11.80;;;7.53;;
58496;SDS011;44284;51.310;16.904;2023-05-10T05:32:49;10.43;;;7.25;;
58496;SDS011;44284;51.310;16.904;2023-05-10T05:35:15;10.45;;;6.82;;
58496;SDS011;44284;51.310;16.904;2023-05-10T05:37:41;11.57;;;7.55;;
58496;SDS011;44284;51.310;16.904;2023-05-10T05:40:07;9.35;;;6.78;;
58496;SDS011;44284;51.310;16.904;2023-05-10T05:42:33;13.20;;;7.47;;
58496;SDS011;44284;51.310;16.904;2023-05-10T05:45:00;15.73;;;7.47;;
58496;SDS011;44284;51.310;16.904;2023-05-10T05:47:26;12.18;;;7.43;;
58496;SDS011;44284;51.310;16.904;2023-05-10T05:49:52;10.32;;;7.07;;
58496;SDS011;44284;51.310;16.904;2023-05-10T05:52:18;11.32;;;7.55;;
58496;SDS011;44284;51.310;16.904;2023-05-10T05:54:44;13.63;;;7.50;;
58496;SDS011;44284;51.310;16.904;2023-05-10T05:57:10;10.32;;;7.55;;
58496;SDS011;44284;51.310;16.904;2023-05-10T05:59:36;10.57;;;7.72;;
58496;SDS011;44284;51.310;16.904;2023-05-10T06:02:07;12.27;;;7.20;;
58496;SDS011;44284;51.310;16.904;2023-05-10T06:04:33;14.60;;;7.60;;
58496;SDS011;44284;51.310;16.904;2023-05-10T06:06:59;11.18;;;7.05;;
58496;SDS011;44284;51.310;16.904;2023-05-10T06:09:25;11.65;;;7.45;;
58496;SDS011;44284;51.310;16.904;2023-05-10T06:11:51;13.00;;;7.35;;
58496;SDS011;44284;51.310;16.904;2023-05-10T06:14:17;10.82;;;7.38;;
58496;SDS011;44284;51.310;16.904;2023-05-10T06:16:45;14.23;;;6.85;;
58496;SDS011;44284;51.310;16.904;2023-05-10T06:19:11;10.00;;;7.00;;
58496;SDS011;44284;51.310;16.904;2023-05-10T06:21:37;10.85;;;7.35;;
58496;SDS011;44284;51.310;16.904;2023-05-10T06:24:04;9.60;;;6.68;;
58496;SDS011;44284;51.310;16.904;2023-05-10T06:26:31;9.57;;;6.63;;
58496;SDS011;44284;51.310;16.904;2023-05-10T06:28:57;9.20;;;6.13;;
58496;SDS011;44284;51.310;16.904;2023-05-10T06:31:23;8.93;;;5.78;;
58496;SDS011;44284;51.310;16.904;2023-05-10T06:33:49;11.95;;;6.18;;
58496;SDS011;44284;51.310;16.904;2023-05-10T06:36:15;10.15;;;6.45;;
58496;SDS011;44284;51.310;16.904;2023-05-10T06:38:42;8.70;;;6.55;;
58496;SDS011;44284;51.310;16.904;2023-05-10T06:41:08;9.50;;;6.32;;
58496;SDS011;44284;51.310;16.904;2023-05-10T06:43:34;9.27;;;5.70;;
58496;SDS011;44284;51.310;16.904;2023-05-10T06:46:00;8.75;;;6.18;;
58496;SDS011;44284;51.310;16.904;2023-05-10T06:48:26;9.95;;;5.95;;
58496;SDS011;44284;51.310;16.904;2023-05-10T06:50:52;11.52;;;5.63;;
58496;SDS011;44284;51.310;16.904;2023-05-10T06:53:18;10.13;;;5.85;;
58496;SDS011;44284;51.310;16.904;2023-05-10T06:55:44;9.27;;;5.82;;
58496;SDS011;44284;51.310;16.904;2023-05-10T06:58:10;9.65;;;5.60;;
58496;SDS011;44284;51.310;16.904;2023-05-10T07:00:37;9.30;;;5.22;;
58496;SDS011;44284;51.310;16.904;2023-05-10T07:03:05;8.75;;;5.32;;
58496;SDS011;44284;51.310;16.904;2023-05-10T07:05:32;9.52;;;5.10;;
58496;SDS011;44284;51.310;16.904;2023-05-10T07:07:58;8.60;;;5.10;;
58496;SDS011;44284;51.310;16.904;2023-05-10T07:10:24;8.93;;;4.90;;
58496;SDS011;44284;51.310;16.904;2023-05-10T07:12:50;8.32;;;5.40;;
58496;SDS011;44284;51.310;16.904;2023-05-10T07:15:16;9.80;;;5.88;;
58496;SDS011;44284;51.310;16.904;2023-05-10T07:17:42;6.85;;;4.72;;
58496;SDS011;44284;51.310;16.904;2023-05-10T07:20:08;8.48;;;5.22;;
58496;SDS011;44284;51.310;16.904;2023-05-10T07:22:34;9.00;;;5.30;;
58496;SDS011;44284;51.310;16.904;2023-05-10T07:25:01;9.75;;;5.03;;
58496;SDS011;44284;51.310;16.904;2023-05-10T07:27:27;9.00;;;5.22;;
58496;SDS011;44284;51.310;16.904;2023-05-10T07:29:53;8.10;;;4.70;;
58496;SDS011;44284;51.310;16.904;2023-05-10T07:32:19;7.07;;;5.07;;
58496;SDS011;44284;51.310;16.904;2023-05-10T07:34:46;10.65;;;5.38;;
58496;SDS011;44284;51.310;16.904;2023-05-10T07:37:12;6.85;;;4.60;;
58496;SDS011;44284;51.310;16.904;2023-05-10T07:39:38;9.32;;;5.35;;
58496;SDS011;44284;51.310;16.904;2023-05-10T07:42:04;9.45;;;5.32;;
58496;SDS011;44284;51.310;16.904;2023-05-10T07:44:30;9.02;;;5.68;;
58496;SDS011;44284;51.310;16.904;2023-05-10T07:46:56;9.23;;;5.28;;
58496;SDS011;44284;51.310;16.904;2023-05-10T07:49:22;8.40;;;5.13;;
58496;SDS011;44284;51.310;16.904;2023-05-10T07:51:49;9.73;;;6.03;;
58496;SDS011;44284;51.310;16.904;2023-05-10T07:54:15;7.45;;;4.82;;
58496;SDS011;44284;51.310;16.904;2023-05-10T07:56:41;7.60;;;4.85;;
58496;SDS011;44284;51.310;16.904;2023-05-10T07:59:14;8.48;;;5.07;;
58496;SDS011;44284;51.310;16.904;2023-05-10T08:01:40;7.57;;;4.80;;
58496;SDS011;44284;51.310;16.904;2023-05-10T08:04:06;9.35;;;5.00;;
58496;SDS011;44284;51.310;16.904;2023-05-10T08:06:33;9.00;;;5.28;;
58496;SDS011;44284;51.310;16.904;2023-05-10T08:09:00;10.70;;;5.70;;
58496;SDS011;44284;51.310;16.904;2023-05-10T08:11:26;7.60;;;5.80;;
58496;SDS011;44284;51.310;16.904;2023-05-10T08:13:55;7.60;;;5.13;;
58496;SDS011;44284;51.310;16.904;2023-05-10T08:16:21;8.57;;;5.32;;
58496;SDS011;44284;51.310;16.904;2023-05-10T08:18:47;9.95;;;6.07;;
58496;SDS011;44284;51.310;16.904;2023-05-10T08:21:15;8.57;;;5.38;;
58496;SDS011;44284;51.310;16.904;2023-05-10T08:23:41;6.93;;;5.05;;
58496;SDS011;44284;51.310;16.904;2023-05-10T08:26:08;9.13;;;5.30;;
58496;SDS011;44284;51.310;16.904;2023-05-10T08:28:34;7.85;;;5.05;;
58496;SDS011;44284;51.310;16.904;2023-05-10T08:31:00;8.93;;;5.43;;
58496;SDS011;44284;51.310;16.904;2023-05-10T08:33:26;10.10;;;5.43;;
58496;SDS011;44284;51.310;16.904;2023-05-10T08:35:52;9.27;;;5.18;;
58496;SDS011;44284;51.310;16.904;2023-05-10T08:38:19;7.90;;;4.40;;
58496;SDS011;44284;51.310;16.904;2023-05-10T08:40:45;8.75;;;5.28;;
58496;SDS011;44284;51.310;16.904;2023-05-10T08:43:12;8.52;;;5.53;;
58496;SDS011;44284;51.310;16.904;2023-05-10T08:45:42;7.38;;;5.22;;
58496;SDS011;44284;51.310;16.904;2023-05-10T08:48:10;8.50;;;5.30;;
58496;SDS011;44284;51.310;16.904;2023-05-10T08:50:37;9.15;;;5.22;;
58496;SDS011;44284;51.310;16.904;2023-05-10T08:53:04;6.68;;;4.60;;
58496;SDS011;44284;51.310;16.904;2023-05-10T08:55:32;7.55;;;5.22;;
58496;SDS011;44284;51.310;16.904;2023-05-10T08:57:58;7.88;;;5.50;;
58496;SDS011;44284;51.310;16.904;2023-05-10T09:00:26;7.70;;;4.70;;
58496;SDS011;44284;51.310;16.904;2023-05-10T09:02:52;6.85;;;4.70;;
58496;SDS011;44284;51.310;16.904;2023-05-10T09:05:19;8.23;;;5.05;;
58496;SDS011;44284;51.310;16.904;2023-05-10T09:07:45;7.07;;;4.80;;
58496;SDS011;44284;51.310;16.904;2023-05-10T09:10:11;8.63;;;5.30;;
58496;SDS011;44284;51.310;16.904;2023-05-10T09:12:38;8.10;;;5.03;;
58496;SDS011;44284;51.310;16.904;2023-05-10T09:15:05;9.48;;;4.88;;
58496;SDS011;44284;51.310;16.904;2023-05-10T09:17:32;7.80;;;4.57;;
58496;SDS011;44284;51.310;16.904;2023-05-10T09:19:59;8.43;;;4.90;;
58496;SDS011;44284;51.310;16.904;2023-05-10T09:22:25;8.23;;;5.00;;
58496;SDS011;44284;51.310;16.904;2023-05-10T09:27:32;10.75;;;4.22;;
58496;SDS011;44284;51.310;16.904;2023-05-10T09:29:58;7.10;;;4.35;;
58496;SDS011;44284;51.310;16.904;2023-05-10T09:32:37;5.95;;;4.25;;
58496;SDS011;44284;51.310;16.904;2023-05-10T09:35:10;7.60;;;4.18;;
58496;SDS011;44284;51.310;16.904;2023-05-10T09:37:40;7.03;;;4.32;;
58496;SDS011;44284;51.310;16.904;2023-05-10T09:40:28;6.90;;;4.68;;
58496;SDS011;44284;51.310;16.904;2023-05-10T09:42:54;6.10;;;3.58;;
58496;SDS011;44284;51.310;16.904;2023-05-10T09:45:20;5.63;;;3.70;;
58496;SDS011;44284;51.310;16.904;2023-05-10T09:47:47;6.72;;;3.92;;
58496;SDS011;44284;51.310;16.904;2023-05-10T09:50:13;5.80;;;3.80;;
58496;SDS011;44284;51.310;16.904;2023-05-10T09:52:46;6.95;;;3.58;;
58496;SDS011;44284;51.310;16.904;2023-05-10T09:55:12;7.20;;;3.80;;
58496;SDS011;44284;51.310;16.904;2023-05-10T09:57:38;7.90;;;4.00;;
58496;SDS011;44284;51.310;16.904;2023-05-10T10:00:05;7.90;;;3.97;;
58496;SDS011;44284;51.310;16.904;2023-05-10T10:02:31;6.22;;;3.92;;
58496;SDS011;44284;51.310;16.904;2023-05-10T10:04:58;8.07;;;3.83;;
58496;SDS011;44284;51.310;16.904;2023-05-10T10:07:25;7.55;;;3.70;;
58496;SDS011;44284;51.310;16.904;2023-05-10T10:09:52;6.30;;;3.80;;
58496;SDS011;44284;51.310;16.904;2023-05-10T10:12:19;6.05;;;3.33;;
58496;SDS011;44284;51.310;16.904;2023-05-10T10:14:48;6.15;;;4.00;;
58496;SDS011;44284;51.310;16.904;2023-05-10T10:17:15;5.38;;;3.20;;
58496;SDS011;44284;51.310;16.904;2023-05-10T10:19:42;6.75;;;3.47;;
58496;SDS011;44284;51.310;16.904;2023-05-10T10:22:08;7.50;;;3.75;;
58496;SDS011;44284;51.310;16.904;2023-05-10T10:24:37;8.32;;;3.75;;
58496;SDS011;44284;51.310;16.904;2023-05-10T10:27:08;6.18;;;3.58;;
58496;SDS011;44284;51.310;16.904;2023-05-10T10:29:39;7.35;;;3.72;;
58496;SDS011;44284;51.310;16.904;2023-05-10T10:32:30;7.82;;;4.00;;
58496;SDS011;44284;51.310;16.904;2023-05-10T10:34:59;5.22;;;3.70;;
58496;SDS011;44284;51.310;16.904;2023-05-10T10:37:40;5.35;;;3.58;;
58496;SDS011;44284;51.310;16.904;2023-05-10T10:42:53;6.57;;;3.65;;
58496;SDS011;44284;51.310;16.904;2023-05-10T10:45:19;6.22;;;3.60;;
58496;SDS011;44284;51.310;16.904;2023-05-10T10:47:46;5.30;;;3.70;;
58496;SDS011;44284;51.310;16.904;2023-05-10T10:50:12;5.82;;;4.05;;
58496;SDS011;44284;51.310;16.904;2023-05-10T10:52:42;7.32;;;3.80;;
58496;SDS011;44284;51.310;16.904;2023-05-10T10:55:15;5.70;;;4.05;;
58496;SDS011;44284;51.310;16.904;2023-05-10T10:57:55;5.38;;;3.78;;
58496;SDS011;44284;51.310;16.904;2023-05-10T11:08:27;6.00;;;3.90;;
58496;SDS011;44284;51.310;16.904;2023-05-10T11:18:51;5.55;;;3.25;;
58496;SDS011;44284;51.310;16.904;2023-05-10T11:21:18;5.95;;;3.50;;
58496;SDS011;44284;51.310;16.904;2023-05-10T11:26:13;5.70;;;3.75;;
58496;SDS011;44284;51.310;16.904;2023-05-10T11:28:45;5.43;;;3.65;;
58496;SDS011;44284;51.310;16.904;2023-05-10T11:31:15;5.10;;;3.53;;
58496;SDS011;44284;51.310;16.904;2023-05-10T11:33:44;6.55;;;3.63;;
58496;SDS011;44284;51.310;16.904;2023-05-10T11:36:12;5.72;;;3.42;;
58496;SDS011;44284;51.310;16.904;2023-05-10T11:38:38;7.75;;;3.70;;
58496;SDS011;44284;51.310;16.904;2023-05-10T11:41:04;5.22;;;3.22;;
58496;SDS011;44284;51.310;16.904;2023-05-10T11:43:30;7.32;;;3.95;;
58496;SDS011;44284;51.310;16.904;2023-05-10T11:45:57;5.05;;;3.08;;
58496;SDS011;44284;51.310;16.904;2023-05-10T11:48:23;6.05;;;4.00;;
58496;SDS011;44284;51.310;16.904;2023-05-10T11:50:49;7.43;;;3.80;;
58496;SDS011;44284;51.310;16.904;2023-05-10T11:53:15;8.23;;;4.00;;
58496;SDS011;44284;51.310;16.904;2023-05-10T11:55:41;5.20;;;3.45;;
58496;SDS011;44284;51.310;16.904;2023-05-10T11:58:08;5.97;;;3.60;;
58496;SDS011;44284;51.310;16.904;2023-05-10T12:00:34;6.47;;;4.03;;
58496;SDS011;44284;51.310;16.904;2023-05-10T12:03:00;6.18;;;3.80;;
58496;SDS011;44284;51.310;16.904;2023-05-10T12:05:27;5.85;;;3.80;;
58496;SDS011;44284;51.310;16.904;2023-05-10T12:08:10;6.32;;;3.40;;
58496;SDS011;44284;51.310;16.904;2023-05-10T12:10:36;4.97;;;3.60;;
58496;SDS011;44284;51.310;16.904;2023-05-10T12:13:02;8.32;;;3.67;;
58496;SDS011;44284;51.310;16.904;2023-05-10T12:15:28;4.63;;;3.70;;
58496;SDS011;44284;51.310;16.904;2023-05-10T12:17:54;7.13;;;3.60;;
58496;SDS011;44284;51.310;16.904;2023-05-10T12:20:23;7.68;;;3.60;;
58496;SDS011;44284;51.310;16.904;2023-05-10T12:22:56;5.13;;;3.63;;
58496;SDS011;44284;51.310;16.904;2023-05-10T12:25:23;6.03;;;3.67;;
58496;SDS011;44284;51.310;16.904;2023-05-10T12:27:53;6.57;;;3.78;;
58496;SDS011;44284;51.310;16.904;2023-05-10T12:30:30;6.03;;;3.75;;
58496;SDS011;44284;51.310;16.904;2023-05-10T12:33:00;6.78;;;4.03;;
58496;SDS011;44284;51.310;16.904;2023-05-10T12:35:29;6.50;;;3.67;;
58496;SDS011;44284;51.310;16.904;2023-05-10T12:37:56;5.80;;;3.50;;
58496;SDS011;44284;51.310;16.904;2023-05-10T12:40:22;7.18;;;4.25;;
58496;SDS011;44284;51.310;16.904;2023-05-10T12:42:48;4.68;;;3.35;;
58496;SDS011;44284;51.310;16.904;2023-05-10T12:45:14;5.55;;;3.63;;
58496;SDS011;44284;51.310;16.904;2023-05-10T12:47:40;5.25;;;3.50;;
58496;SDS011;44284;51.310;16.904;2023-05-10T12:50:06;5.00;;;3.47;;
58496;SDS011;44284;51.310;16.904;2023-05-10T12:52:32;5.03;;;3.25;;
58496;SDS011;44284;51.310;16.904;2023-05-10T12:54:58;4.90;;;3.55;;
58496;SDS011;44284;51.310;16.904;2023-05-10T12:57:25;5.03;;;3.60;;
58496;SDS011;44284;51.310;16.904;2023-05-10T12:59:51;5.63;;;3.47;;
58496;SDS011;44284;51.310;16.904;2023-05-10T13:02:17;6.72;;;3.33;;
58496;SDS011;44284;51.310;16.904;2023-05-10T13:04:44;5.68;;;3.65;;
58496;SDS011;44284;51.310;16.904;2023-05-10T13:07:11;6.05;;;3.42;;
58496;SDS011;44284;51.310;16.904;2023-05-10T13:09:37;4.82;;;3.50;;
58496;SDS011;44284;51.310;16.904;2023-05-10T13:12:03;5.90;;;3.17;;
58496;SDS011;44284;51.310;16.904;2023-05-10T13:14:29;5.45;;;3.80;;
58496;SDS011;44284;51.310;16.904;2023-05-10T13:16:55;5.97;;;3.15;;
58496;SDS011;44284;51.310;16.904;2023-05-10T13:19:21;7.85;;;3.67;;
58496;SDS011;44284;51.310;16.904;2023-05-10T13:21:47;5.15;;;3.40;;
58496;SDS011;44284;51.310;16.904;2023-05-10T13:24:13;5.60;;;3.50;;
58496;SDS011;44284;51.310;16.904;2023-05-10T13:26:40;6.60;;;3.45;;
58496;SDS011;44284;51.310;16.904;2023-05-10T13:29:06;5.07;;;3.20;;
58496;SDS011;44284;51.310;16.904;2023-05-10T13:31:33;5.55;;;3.60;;
58496;SDS011;44284;51.310;16.904;2023-05-10T13:33:59;5.68;;;3.72;;
58496;SDS011;44284;51.310;16.904;2023-05-10T13:36:25;6.57;;;3.70;;
58496;SDS011;44284;51.310;16.904;2023-05-10T13:38:51;5.68;;;3.55;;
58496;SDS011;44284;51.310;16.904;2023-05-10T13:41:17;7.47;;;3.08;;
58496;SDS011;44284;51.310;16.904;2023-05-10T13:43:43;4.70;;;3.08;;
58496;SDS011;44284;51.310;16.904;2023-05-10T13:46:10;5.40;;;3.30;;
58496;SDS011;44284;51.310;16.904;2023-05-10T13:48:36;6.10;;;3.10;;
58496;SDS011;44284;51.310;16.904;2023-05-10T13:51:02;8.18;;;3.20;;
58496;SDS011;44284;51.310;16.904;2023-05-10T13:53:28;4.72;;;3.22;;
58496;SDS011;44284;51.310;16.904;2023-05-10T13:55:54;4.25;;;3.13;;
58496;SDS011;44284;51.310;16.904;2023-05-10T13:58:20;5.05;;;3.30;;
58496;SDS011;44284;51.310;16.904;2023-05-10T14:00:46;4.68;;;3.35;;
58496;SDS011;44284;51.310;16.904;2023-05-10T14:03:12;4.50;;;3.22;;
58496;SDS011;44284;51.310;16.904;2023-05-10T14:05:38;5.80;;;3.45;;
58496;SDS011;44284;51.310;16.904;2023-05-10T14:08:04;5.00;;;3.22;;
58496;SDS011;44284;51.310;16.904;2023-05-10T14:10:31;5.32;;;3.28;;
58496;SDS011;44284;51.310;16.904;2023-05-10T14:12:58;8.75;;;3.17;;
58496;SDS011;44284;51.310;16.904;2023-05-10T14:15:24;6.35;;;3.25;;
58496;SDS011;44284;51.310;16.904;2023-05-10T14:17:50;6.07;;;3.28;;
58496;SDS011;44284;51.310;16.904;2023-05-10T14:20:17;5.95;;;3.60;;
58496;SDS011;44284;51.310;16.904;2023-05-10T14:22:43;6.50;;;3.60;;
58496;SDS011;44284;51.310;16.904;2023-05-10T14:25:09;5.45;;;2.92;;
58496;SDS011;44284;51.310;16.904;2023-05-10T14:27:35;7.30;;;3.20;;
58496;SDS011;44284;51.310;16.904;2023-05-10T14:30:01;4.65;;;3.00;;
58496;SDS011;44284;51.310;16.904;2023-05-10T14:32:27;7.50;;;2.80;;
58496;SDS011;44284;51.310;16.904;2023-05-10T14:34:53;4.85;;;2.80;;
58496;SDS011;44284;51.310;16.904;2023-05-10T14:37:20;5.40;;;3.25;;
58496;SDS011;44284;51.310;16.904;2023-05-10T14:39:46;4.88;;;3.28;;
58496;SDS011;44284;51.310;16.904;2023-05-10T14:42:12;5.55;;;3.40;;
58496;SDS011;44284;51.310;16.904;2023-05-10T14:44:38;4.10;;;2.95;;
58496;SDS011;44284;51.310;16.904;2023-05-10T14:47:04;6.03;;;3.10;;
58496;SDS011;44284;51.310;16.904;2023-05-10T14:49:31;4.85;;;3.08;;
58496;SDS011;44284;51.310;16.904;2023-05-10T14:51:57;5.20;;;2.95;;
58496;SDS011;44284;51.310;16.904;2023-05-10T14:54:23;7.82;;;2.97;;
58496;SDS011;44284;51.310;16.904;2023-05-10T14:56:49;5.35;;;3.25;;
58496;SDS011;44284;51.310;16.904;2023-05-10T14:59:15;5.07;;;3.28;;
58496;SDS011;44284;51.310;16.904;2023-05-10T15:01:41;5.60;;;3.22;;
58496;SDS011;44284;51.310;16.904;2023-05-10T15:04:07;7.03;;;3.53;;
58496;SDS011;44284;51.310;16.904;2023-05-10T15:06:34;4.35;;;2.80;;
58496;SDS011;44284;51.310;16.904;2023-05-10T15:09:01;4.45;;;3.25;;